Hel, Poland
Current Conditions -  °F | °C
As of 3:00 AM on Saturday 25 Oct 2014 (Local Time) from EPGD Reporting Station
Clear Clear  
Wind Chill: 24°   Ceiling: Unl
Heat Index: 32°   Visibility: 6mi
Dew Point: 23°   Wind: 9mph
Humidity: 69%   Direction: 180°S
Pressure: 30.3"   Gusts: NA
Location:  54.6°N, 18.82°E
Report Text: EPGD 250100Z 18008KT 140V220 CAVOK M00/M05 Q1026
Loading
Personal Weather Stations






























Interactive Weather Map
Tropical Storm Tracking
New forecast layout! Learn more

10-Day Weather Forecast

Advertisements
Track Severe Weather on mobile